Time;durP1;ratioP1;P1;durP2;ratioP2;P2;SDS_P1;SDS_P2;PMS_P1;PMS_P2;Temp;Humidity;BMP_temperature;BMP_pressure;BME280_temperature;BME280_humidity;BME280_pressure;Samples;Min_cycle;Max_cycle;Signal;HPM_P1;HPM_P2
2022/08/09 00:02:22;;;;;;;;;;;15.30;99.90;;;;;;5136468;27;20348;-74
2022/08/09 00:04:48;;;;;;;;;;;15.30;99.90;;;;;;5137649;27;19903;-75
2022/08/09 00:07:13;;;;;;;;;;;15.20;99.90;;;;;;5138332;27;19954;-74
2022/08/09 00:09:39;;;;;;;;;;;15.20;99.90;;;;;;5138004;27;19903;-74
2022/08/09 00:12:05;;;;;;;;;;;15.20;99.90;;;;;;5118489;27;19916;-74
2022/08/09 00:14:30;;;;;;;;;;;15.20;99.90;;;;;;5137548;27;19980;-75
2022/08/09 00:16:56;;;;;;;;;;;15.10;99.90;;;;;;5137065;27;19903;-75
2022/08/09 00:19:21;;;;;;;;;;;15.10;99.90;;;;;;5137913;27;19904;-74
2022/08/09 00:21:47;;;;;;;;;;;15.10;99.90;;;;;;5137171;27;19943;-75
2022/08/09 00:24:12;;;;;;;;;;;15.00;99.90;;;;;;5137808;27;19903;-75
2022/08/09 00:26:38;;;;;;;;;;;15.00;99.90;;;;;;5137669;27;19955;-75
2022/08/09 00:29:04;;;;;;;;;;;15.00;99.90;;;;;;5137026;27;20344;-75
2022/08/09 00:31:29;;;;;;;;;;;14.90;99.90;;;;;;5137225;27;19912;-75
2022/08/09 00:33:55;;;;;;;;;;;14.90;99.90;;;;;;5136690;27;19903;-74
2022/08/09 00:36:21;;;;;;;;;;;14.80;99.90;;;;;;5137339;27;20233;-74
2022/08/09 00:38:47;;;;;;;;;;;14.80;99.90;;;;;;5136651;27;19943;-75
2022/08/09 00:41:13;;;;;;;;;;;14.80;99.90;;;;;;5137158;27;19999;-75
2022/08/09 00:43:39;;;;;;;;;;;14.80;99.90;;;;;;5137398;27;20392;-75
2022/08/09 00:46:05;;;;;;;;;;;14.80;99.90;;;;;;5136618;27;20536;-74
2022/08/09 00:48:31;;;;;;;;;;;14.80;99.90;;;;;;5136940;27;19904;-73
2022/08/09 00:50:59;;;;;;;;;;;14.80;99.90;;;;;;5136294;27;19918;-75
2022/08/09 00:53:25;;;;;;;;;;;14.80;99.90;;;;;;5136982;27;19990;-74
2022/08/09 00:55:50;;;;;;;;;;;14.90;99.90;;;;;;5136244;27;20318;-74
2022/08/09 00:58:16;;;;;;;;;;;14.80;99.90;;;;;;5118603;27;19903;-74
2022/08/09 01:00:42;;;;;;;;;;;14.80;99.90;;;;;;5137338;27;19904;-74
2022/08/09 01:03:34;;;;;;;;;;;14.80;99.90;;;;;;5136387;27;19907;-74
2022/08/09 01:06:03;;;;;;;;;;;14.70;99.90;;;;;;5130730;27;19907;-74
2022/08/09 01:08:40;;;;;;;;;;;14.70;99.90;;;;;;5136578;27;19911;-74
2022/08/09 01:11:11;;;;;;;;;;;14.70;99.90;;;;;;5136121;27;19915;-74
2022/08/09 01:13:37;;;;;;;;;;;14.60;99.90;;;;;;5135656;27;19903;-75
2022/08/09 01:16:04;;;;;;;;;;;14.60;99.90;;;;;;5135920;27;20339;-75
2022/08/09 01:18:31;;;;;;;;;;;14.60;99.90;;;;;;5136686;27;20323;-75
2022/08/09 01:21:05;;;;;;;;;;;14.50;99.90;;;;;;5135979;27;19948;-74
2022/08/09 01:23:37;;;;;;;;;;;14.60;99.90;;;;;;5136343;27;19959;-74
2022/08/09 01:26:21;;;;;;;;;;;14.60;99.90;;;;;;5136029;27;19935;-74
2022/08/09 01:28:49;;;;;;;;;;;14.70;99.90;;;;;;5136294;27;19903;-74
2022/08/09 01:31:17;;;;;;;;;;;14.70;99.90;;;;;;5136041;27;19960;-75
2022/08/09 01:33:45;;;;;;;;;;;14.60;99.90;;;;;;5136505;27;19910;-75
2022/08/09 01:36:12;;;;;;;;;;;14.50;99.90;;;;;;5136063;27;19903;-75
2022/08/09 01:38:39;;;;;;;;;;;14.50;99.90;;;;;;5136280;27;19903;-75
2022/08/09 01:41:08;;;;;;;;;;;14.50;99.90;;;;;;5135685;27;20006;-74
2022/08/09 01:43:35;;;;;;;;;;;14.50;99.90;;;;;;5136214;27;19903;-74
2022/08/09 01:46:01;;;;;;;;;;;14.50;99.90;;;;;;5135318;27;19962;-74
2022/08/09 01:48:27;;;;;;;;;;;14.50;99.90;;;;;;5135684;27;19903;-74
2022/08/09 01:50:54;;;;;;;;;;;14.50;99.90;;;;;;5135116;27;20013;-75
2022/08/09 01:53:21;;;;;;;;;;;14.50;99.90;;;;;;5136119;27;19903;-74
2022/08/09 01:55:48;;;;;;;;;;;14.50;99.90;;;;;;5135972;27;19994;-75
2022/08/09 01:58:14;;;;;;;;;;;14.50;99.90;;;;;;5116741;27;19911;-74
2022/08/09 02:00:41;;;;;;;;;;;14.40;99.90;;;;;;5135526;27;19930;-74
2022/08/09 02:03:07;;;;;;;;;;;14.40;99.90;;;;;;5134783;27;20283;-74
2022/08/09 02:05:33;;;;;;;;;;;14.40;99.90;;;;;;5135767;27;19903;-75
2022/08/09 02:08:01;;;;;;;;;;;14.40;99.90;;;;;;5135117;27;19903;-74
2022/08/09 02:10:29;;;;;;;;;;;14.50;99.90;;;;;;5135697;27;19918;-74
2022/08/09 02:12:56;;;;;;;;;;;14.40;99.90;;;;;;5134724;27;19910;-74
2022/08/09 02:15:22;;;;;;;;;;;14.40;99.90;;;;;;5135761;27;20304;-74
2022/08/09 02:17:50;;;;;;;;;;;14.40;99.90;;;;;;5135621;27;19910;-74
2022/08/09 02:20:16;;;;;;;;;;;14.40;99.90;;;;;;5135097;27;20396;-74
2022/08/09 02:22:46;;;;;;;;;;;14.40;99.90;;;;;;5134968;27;19904;-74
2022/08/09 02:25:15;;;;;;;;;;;14.40;99.90;;;;;;5134473;27;19993;-74
2022/08/09 02:27:44;;;;;;;;;;;14.30;99.90;;;;;;5135092;27;19908;-74
2022/08/09 02:30:09;;;;;;;;;;;14.30;99.90;;;;;;5134150;27;20360;-74
2022/08/09 02:32:38;;;;;;;;;;;14.20;99.90;;;;;;5134879;27;19911;-74
2022/08/09 02:35:06;;;;;;;;;;;14.20;99.90;;;;;;5134632;27;19911;-74
2022/08/09 02:37:33;;;;;;;;;;;14.20;99.90;;;;;;5134917;27;19911;-75
2022/08/09 02:40:02;;;;;;;;;;;14.20;99.90;;;;;;5134218;27;19904;-74
2022/08/09 02:42:32;;;;;;;;;;;14.20;99.90;;;;;;5134983;27;20056;-75
2022/08/09 02:45:00;;;;;;;;;;;14.10;99.90;;;;;;5134388;27;19904;-75
2022/08/09 02:47:27;;;;;;;;;;;14.10;99.90;;;;;;5134736;27;19965;-74
2022/08/09 02:49:55;;;;;;;;;;;14.10;99.90;;;;;;5134372;27;19987;-75
2022/08/09 02:52:21;;;;;;;;;;;14.10;99.90;;;;;;5134813;27;19903;-74
2022/08/09 02:54:47;;;;;;;;;;;14.00;99.90;;;;;;5134862;27;19903;-74
2022/08/09 02:57:15;;;;;;;;;;;14.10;99.90;;;;;;5134180;27;20043;-74
2022/08/09 02:59:41;;;;;;;;;;;14.10;99.90;;;;;;5134644;27;19904;-74
2022/08/09 03:02:07;;;;;;;;;;;14.10;99.90;;;;;;5133842;27;19904;-75
2022/08/09 03:04:35;;;;;;;;;;;14.10;99.90;;;;;;5134605;27;19903;-74
2022/08/09 03:07:02;;;;;;;;;;;14.10;99.90;;;;;;5133831;27;20005;-74
2022/08/09 03:09:28;;;;;;;;;;;14.10;99.90;;;;;;5134539;27;20007;-74
2022/08/09 03:11:54;;;;;;;;;;;14.10;99.90;;;;;;5133852;27;20009;-74
2022/08/09 03:14:20;;;;;;;;;;;14.10;99.90;;;;;;5133954;27;19903;-74
2022/08/09 03:16:46;;;;;;;;;;;14.10;99.90;;;;;;5134149;27;19907;-74
2022/08/09 03:19:13;;;;;;;;;;;14.00;99.90;;;;;;5133941;27;19910;-74
2022/08/09 03:21:40;;;;;;;;;;;14.00;99.90;;;;;;5134174;27;19904;-74
2022/08/09 03:24:05;;;;;;;;;;;14.00;99.90;;;;;;5133518;27;20294;-74
2022/08/09 03:26:32;;;;;;;;;;;14.00;99.90;;;;;;5134252;27;19903;-74
2022/08/09 03:28:58;;;;;;;;;;;14.00;99.90;;;;;;5133655;27;19903;-74
2022/08/09 03:31:25;;;;;;;;;;;14.00;99.90;;;;;;5133951;27;19915;-74
2022/08/09 03:33:50;;;;;;;;;;;13.90;99.90;;;;;;5134471;27;19911;-74
2022/08/09 03:36:16;;;;;;;;;;;13.90;99.90;;;;;;5132733;27;19903;-74
2022/08/09 03:38:42;;;;;;;;;;;13.90;99.90;;;;;;5133790;27;19928;-74
2022/08/09 03:41:08;;;;;;;;;;;13.90;99.90;;;;;;5133180;27;19915;-75
2022/08/09 03:43:33;;;;;;;;;;;13.90;99.90;;;;;;5134332;27;19943;-75
2022/08/09 03:45:59;;;;;;;;;;;13.90;99.90;;;;;;5133122;27;19907;-74
2022/08/09 03:48:25;;;;;;;;;;;13.90;99.90;;;;;;5133621;27;19930;-73
2022/08/09 03:50:53;;;;;;;;;;;13.90;99.90;;;;;;5133924;28;20344;-73
2022/08/09 03:53:20;;;;;;;;;;;13.90;99.90;;;;;;5133387;28;19908;-74
2022/08/09 03:55:45;;;;;;;;;;;13.90;99.90;;;;;;5133648;28;19903;-74
2022/08/09 03:58:11;;;;;;;;;;;14.00;99.90;;;;;;5133271;28;19903;-74
2022/08/09 04:00:37;;;;;;;;;;;14.00;99.90;;;;;;5133969;28;19903;-74
2022/08/09 04:03:03;;;;;;;;;;;14.00;99.90;;;;;;5133531;28;19910;-75
2022/08/09 04:05:29;;;;;;;;;;;14.00;99.90;;;;;;5133804;28;20297;-75
2022/08/09 04:07:55;;;;;;;;;;;13.90;99.90;;;;;;5133805;28;19915;-75
2022/08/09 04:10:21;;;;;;;;;;;14.00;99.90;;;;;;5114802;28;19916;-75
2022/08/09 04:12:47;;;;;;;;;;;14.00;99.90;;;;;;5133789;28;19910;-75
2022/08/09 04:15:14;;;;;;;;;;;14.00;99.90;;;;;;5133069;28;19904;-75
2022/08/09 04:17:40;;;;;;;;;;;14.00;99.90;;;;;;5133816;28;19946;-75
2022/08/09 04:20:06;;;;;;;;;;;14.00;99.90;;;;;;5133177;28;19903;-74
2022/08/09 04:22:32;;;;;;;;;;;14.00;99.90;;;;;;5133689;28;19903;-75
2022/08/09 04:24:58;;;;;;;;;;;13.90;99.90;;;;;;5133674;28;19998;-74
2022/08/09 04:27:23;;;;;;;;;;;13.90;99.90;;;;;;5133186;28;20369;-73
2022/08/09 04:29:49;;;;;;;;;;;13.80;99.90;;;;;;5133392;28;20283;-74
2022/08/09 04:32:14;;;;;;;;;;;13.80;99.90;;;;;;5132824;28;20330;-74
2022/08/09 04:34:40;;;;;;;;;;;13.80;99.90;;;;;;5133358;28;19955;-75
2022/08/09 04:37:06;;;;;;;;;;;13.80;99.90;;;;;;5132608;28;20356;-75
2022/08/09 04:39:32;;;;;;;;;;;13.80;99.90;;;;;;5133174;28;19911;-74
2022/08/09 04:41:57;;;;;;;;;;;13.80;99.90;;;;;;5133454;28;19941;-74
2022/08/09 04:44:23;;;;;;;;;;;13.80;99.90;;;;;;5133276;28;19903;-74
2022/08/09 04:46:49;;;;;;;;;;;13.90;99.90;;;;;;5114586;27;19903;-74
2022/08/09 04:49:14;;;;;;;;;;;13.90;99.90;;;;;;5135371;27;19907;-75
2022/08/09 04:51:40;;;;;;;;;;;13.90;99.90;;;;;;5137174;27;19911;-75
2022/08/09 04:54:05;;;;;;;;;;;13.90;99.90;;;;;;5136278;27;20313;-74
2022/08/09 04:56:31;;;;;;;;;;;13.80;99.90;;;;;;5137037;27;19910;-74
2022/08/09 04:58:57;;;;;;;;;;;13.80;99.90;;;;;;5136960;27;19910;-74
2022/08/09 05:01:22;;;;;;;;;;;13.90;99.90;;;;;;5117982;27;20068;-74
2022/08/09 05:03:48;;;;;;;;;;;13.90;99.90;;;;;;5136554;27;20375;-74
2022/08/09 05:06:13;;;;;;;;;;;13.90;99.90;;;;;;5136320;27;19988;-74
2022/08/09 05:08:39;;;;;;;;;;;13.90;99.90;;;;;;5136835;27;19918;-74
2022/08/09 05:11:05;;;;;;;;;;;13.90;99.90;;;;;;5117804;27;19911;-74
2022/08/09 05:13:31;;;;;;;;;;;14.00;99.90;;;;;;5136721;27;19926;-74
2022/08/09 05:15:56;;;;;;;;;;;14.00;99.90;;;;;;5136585;27;20340;-73
2022/08/09 05:18:23;;;;;;;;;;;14.00;99.90;;;;;;5136154;27;19911;-74
2022/08/09 05:20:49;;;;;;;;;;;14.00;99.90;;;;;;5136621;27;19933;-74
2022/08/09 05:23:15;;;;;;;;;;;14.00;99.90;;;;;;5135816;27;19903;-73
2022/08/09 05:25:40;;;;;;;;;;;14.00;99.90;;;;;;5136648;27;19933;-74
2022/08/09 05:28:06;;;;;;;;;;;14.00;99.90;;;;;;5135988;27;20399;-74
2022/08/09 05:30:33;;;;;;;;;;;14.00;99.90;;;;;;5136506;27;19911;-75
2022/08/09 05:32:59;;;;;;;;;;;14.00;99.90;;;;;;5136290;27;19907;-75
2022/08/09 05:35:25;;;;;;;;;;;14.20;99.90;;;;;;5117265;27;19949;-75
2022/08/09 05:37:51;;;;;;;;;;;14.20;99.90;;;;;;5136336;27;19903;-75
2022/08/09 05:40:16;;;;;;;;;;;14.40;99.90;;;;;;5135517;27;19969;-75
2022/08/09 05:42:42;;;;;;;;;;;14.50;99.90;;;;;;5136632;27;20347;-75
2022/08/09 05:45:08;;;;;;;;;;;14.50;99.90;;;;;;5117375;27;19903;-75
2022/08/09 05:47:33;;;;;;;;;;;14.60;99.90;;;;;;5135419;27;20416;-75
2022/08/09 05:49:59;;;;;;;;;;;14.70;99.90;;;;;;5135859;27;19909;-75
2022/08/09 05:52:24;;;;;;;;;;;14.80;99.90;;;;;;5135854;27;19960;-75
2022/08/09 05:54:50;;;;;;;;;;;14.90;99.90;;;;;;5136025;27;20271;-75
2022/08/09 05:57:16;;;;;;;;;;;15.00;99.90;;;;;;5135376;27;19911;-75
2022/08/09 05:59:41;;;;;;;;;;;15.10;99.90;;;;;;5135678;27;19919;-73
2022/08/09 06:02:07;;;;;;;;;;;15.20;99.90;;;;;;5135045;27;19911;-74
2022/08/09 06:04:33;;;;;;;;;;;15.30;99.90;;;;;;5135782;27;19904;-74
2022/08/09 06:06:59;;;;;;;;;;;15.50;99.90;;;;;;5117187;27;19903;-74
2022/08/09 06:09:24;;;;;;;;;;;15.60;99.90;;;;;;5134830;27;19974;-74
2022/08/09 06:11:50;;;;;;;;;;;15.80;99.90;;;;;;5135605;27;20328;-74
2022/08/09 06:14:16;;;;;;;;;;;15.90;99.90;;;;;;5134949;27;19903;-74
2022/08/09 06:16:42;;;;;;;;;;;16.10;99.90;;;;;;5135489;27;19910;-74
2022/08/09 06:19:08;;;;;;;;;;;16.20;99.90;;;;;;5134830;27;19903;-74
2022/08/09 06:21:33;;;;;;;;;;;16.30;99.90;;;;;;5135811;27;19942;-75
2022/08/09 06:23:59;;;;;;;;;;;16.40;99.90;;;;;;5134998;27;19908;-75
2022/08/09 06:26:25;;;;;;;;;;;16.60;99.90;;;;;;5116310;27;19903;-75
2022/08/09 06:28:51;;;;;;;;;;;16.70;99.90;;;;;;5135244;27;20019;-75
2022/08/09 06:31:17;;;;;;;;;;;16.90;99.90;;;;;;5134605;27;19912;-76
2022/08/09 06:33:43;;;;;;;;;;;17.10;99.90;;;;;;5135264;27;19911;-76
2022/08/09 06:36:09;;;;;;;;;;;17.20;99.90;;;;;;5134560;27;19903;-76
2022/08/09 06:38:34;;;;;;;;;;;17.30;99.90;;;;;;5135128;27;19961;-75
2022/08/09 06:41:00;;;;;;;;;;;17.40;99.90;;;;;;5135215;27;20313;-75
2022/08/09 06:43:26;;;;;;;;;;;17.30;99.90;;;;;;5134222;27;19949;-75
2022/08/09 06:45:51;;;;;;;;;;;17.40;99.90;;;;;;5134927;27;19904;-75
2022/08/09 06:48:17;;;;;;;;;;;17.50;99.90;;;;;;5115811;27;19910;-76
2022/08/09 06:50:42;;;;;;;;;;;17.60;99.90;;;;;;5134842;27;19911;-75
2022/08/09 06:53:08;;;;;;;;;;;17.60;99.90;;;;;;5134727;27;19903;-77
2022/08/09 06:55:33;;;;;;;;;;;17.80;99.90;;;;;;5116206;27;19941;-75
2022/08/09 06:57:59;;;;;;;;;;;17.90;99.90;;;;;;5134427;27;19907;-75
2022/08/09 07:00:25;;;;;;;;;;;18.10;99.90;;;;;;5134120;27;19907;-75
2022/08/09 07:02:51;;;;;;;;;;;18.10;99.90;;;;;;5134331;27;19907;-75
2022/08/09 07:05:16;;;;;;;;;;;18.30;99.90;;;;;;5134032;27;19903;-76
2022/08/09 07:07:43;;;;;;;;;;;18.40;99.90;;;;;;5134335;27;19904;-75
2022/08/09 07:10:11;;;;;;;;;;;18.50;99.90;;;;;;5134051;27;20316;-75
2022/08/09 07:12:37;;;;;;;;;;;18.60;99.90;;;;;;5133864;27;20002;-74
2022/08/09 07:15:03;;;;;;;;;;;18.70;99.90;;;;;;5134071;27;20327;-74
2022/08/09 07:17:29;;;;;;;;;;;18.70;99.90;;;;;;5133561;27;20120;-74
2022/08/09 07:19:55;;;;;;;;;;;18.80;99.90;;;;;;5134323;27;20352;-74
2022/08/09 07:22:21;;;;;;;;;;;18.90;99.90;;;;;;5133552;27;19904;-74
2022/08/09 07:24:46;;;;;;;;;;;18.90;99.90;;;;;;5133978;27;19903;-74
2022/08/09 07:27:12;;;;;;;;;;;19.00;99.90;;;;;;5133743;27;19949;-75
2022/08/09 07:29:38;;;;;;;;;;;19.00;99.90;;;;;;5133957;27;19907;-73
2022/08/09 07:32:03;;;;;;;;;;;19.10;99.90;;;;;;5133705;27;19918;-73
2022/08/09 07:34:29;;;;;;;;;;;19.30;99.90;;;;;;5132672;27;19910;-75
2022/08/09 07:36:55;;;;;;;;;;;19.30;99.90;;;;;;5139500;27;19947;-75
2022/08/09 07:39:20;;;;;;;;;;;19.40;99.90;;;;;;5154480;27;19907;-74
2022/08/09 07:41:46;;;;;;;;;;;19.40;99.90;;;;;;5154216;27;20291;-74
2022/08/09 07:44:12;;;;;;;;;;;19.50;99.90;;;;;;5154902;27;19911;-74
2022/08/09 07:46:37;;;;;;;;;;;19.50;99.90;;;;;;5154298;27;19903;-74
2022/08/09 07:49:03;;;;;;;;;;;19.70;99.90;;;;;;5154433;27;20342;-74
2022/08/09 07:51:29;;;;;;;;;;;19.70;99.90;;;;;;5153962;27;19919;-74
2022/08/09 07:53:55;;;;;;;;;;;19.80;99.90;;;;;;5136162;27;19903;-74
2022/08/09 07:56:20;;;;;;;;;;;20.00;99.90;;;;;;5154062;27;19925;-74
2022/08/09 07:58:46;;;;;;;;;;;20.10;99.90;;;;;;5154385;27;19998;-74
2022/08/09 08:01:12;;;;;;;;;;;20.10;99.90;;;;;;5154540;27;19903;-74
2022/08/09 08:03:37;;;;;;;;;;;20.20;99.90;;;;;;5154366;27;19946;-74
2022/08/09 08:06:03;;;;;;;;;;;20.40;99.90;;;;;;5154473;27;19903;-75
2022/08/09 08:08:29;;;;;;;;;;;20.40;99.90;;;;;;5153958;27;19903;-75
2022/08/09 08:10:55;;;;;;;;;;;20.50;99.90;;;;;;5154630;27;19964;-74
2022/08/09 08:13:20;;;;;;;;;;;20.60;99.90;;;;;;5154216;27;20244;-75
2022/08/09 08:15:46;;;;;;;;;;;20.70;99.90;;;;;;5135873;27;19963;-74
2022/08/09 08:18:11;;;;;;;;;;;20.80;99.90;;;;;;5154444;27;19903;-75
2022/08/09 08:20:37;;;;;;;;;;;20.90;99.90;;;;;;5153588;27;20008;-75
2022/08/09 08:23:04;;;;;;;;;;;20.90;99.90;;;;;;5156871;27;19904;-75
2022/08/09 08:25:30;;;;;;;;;;;20.90;99.90;;;;;;5157972;27;19938;-74
2022/08/09 08:27:55;;;;;;;;;;;20.80;99.90;;;;;;5140024;27;19903;-74
2022/08/09 08:30:21;;;;;;;;;;;20.70;99.90;;;;;;5157738;27;20347;-74
2022/08/09 08:32:47;;;;;;;;;;;20.70;99.90;;;;;;5158176;27;19964;-74
2022/08/09 08:35:12;;;;;;;;;;;20.60;99.90;;;;;;5157827;27;19907;-75
2022/08/09 08:37:38;;;;;;;;;;;20.60;99.90;;;;;;5157664;27;20010;-75
2022/08/09 08:40:04;;;;;;;;;;;20.70;99.90;;;;;;5157723;27;20036;-74
2022/08/09 08:42:30;;;;;;;;;;;20.80;99.90;;;;;;5157584;27;19910;-75
2022/08/09 08:44:56;;;;;;;;;;;20.90;99.90;;;;;;5139546;27;19903;-75
2022/08/09 08:47:24;;;;;;;;;;;21.10;99.90;;;;;;5157416;27;19903;-75
2022/08/09 08:49:49;;;;;;;;;;;21.10;99.90;;;;;;5157583;27;20274;-75
2022/08/09 08:52:24;;;;;;;;;;;21.30;99.90;;;;;;5157858;27;19919;-75
2022/08/09 08:54:52;;;;;;;;;;;21.40;99.90;;;;;;5158658;27;20324;-75
2022/08/09 08:57:18;;;;;;;;;;;21.60;99.90;;;;;;5157513;27;19907;-74
2022/08/09 08:59:44;;;;;;;;;;;21.70;99.90;;;;;;5158502;27;19907;-74
2022/08/09 09:02:16;;;;;;;;;;;21.60;99.90;;;;;;5158961;27;20358;-74
2022/08/09 09:04:44;;;;;;;;;;;21.60;99.90;;;;;;5159857;27;19903;-74
2022/08/09 09:07:10;;;;;;;;;;;21.70;99.90;;;;;;5158980;27;19910;-74
2022/08/09 09:09:37;;;;;;;;;;;21.80;99.90;;;;;;5157118;27;19973;-74
2022/08/09 09:12:03;;;;;;;;;;;21.80;99.90;;;;;;5157164;27;19911;-74
2022/08/09 09:14:30;;;;;;;;;;;21.80;99.90;;;;;;5157021;27;19904;-74
2022/08/09 09:16:55;;;;;;;;;;;21.90;99.90;;;;;;5157557;27;20002;-74
2022/08/09 09:19:21;;;;;;;;;;;21.90;99.90;;;;;;5157012;27;19942;-76
2022/08/09 09:21:55;;;;;;;;;;;22.00;99.90;;;;;;5157266;27;20282;-75
2022/08/09 09:24:25;;;;;;;;;;;22.10;99.90;;;;;;5156480;27;19903;-75
2022/08/09 09:26:55;;;;;;;;;;;22.20;99.90;;;;;;5138673;27;19951;-75
2022/08/09 09:29:30;;;;;;;;;;;22.20;99.90;;;;;;5156791;27;19902;-74
2022/08/09 09:31:56;;;;;;;;;;;22.20;99.90;;;;;;5157167;27;19911;-75
2022/08/09 09:34:21;;;;;;;;;;;22.30;99.90;;;;;;5137146;27;20251;-75
2022/08/09 09:36:47;;;;;;;;;;;22.30;99.90;;;;;;5156832;27;19918;-75
2022/08/09 09:39:12;;;;;;;;;;;22.30;99.90;;;;;;5157447;27;19952;-75
2022/08/09 09:41:38;;;;;;;;;;;22.50;99.90;;;;;;5156474;27;19925;-74
2022/08/09 09:44:05;;;;;;;;;;;22.40;99.90;;;;;;5156912;27;20026;-75
2022/08/09 09:46:31;;;;;;;;;;;22.50;99.90;;;;;;5156462;27;19909;-75
2022/08/09 09:49:04;;;;;;;;;;;22.50;99.90;;;;;;5156683;27;19903;-74
2022/08/09 09:51:31;;;;;;;;;;;22.50;99.90;;;;;;5155745;27;19911;-74
2022/08/09 09:54:13;;;;;;;;;;;22.60;99.90;;;;;;5156715;27;19903;-74
2022/08/09 09:56:40;;;;;;;;;;;22.60;99.90;;;;;;5156486;27;20348;-74
2022/08/09 09:59:10;;;;;;;;;;;22.70;99.90;;;;;;5156599;27;19946;-74
2022/08/09 10:01:36;;;;;;;;;;;22.70;99.90;;;;;;5155760;27;19903;-75
2022/08/09 10:04:02;;;;;;;;;;;22.60;99.90;;;;;;5156775;27;19903;-75
2022/08/09 10:06:29;;;;;;;;;;;22.60;99.90;;;;;;5156126;27;19907;-75
2022/08/09 10:09:00;;;;;;;;;;;22.60;99.90;;;;;;5156113;27;20292;-75
2022/08/09 10:11:27;;;;;;;;;;;22.60;99.90;;;;;;5155722;27;19911;-75
2022/08/09 10:13:53;;;;;;;;;;;22.70;99.90;;;;;;5156354;27;19903;-74
2022/08/09 10:16:45;;;;;;;;;;;22.80;99.90;;;;;;5156018;27;19989;-74
2022/08/09 10:19:10;;;;;;;;;;;22.70;99.90;;;;;;5132388;27;19903;-74
2022/08/09 10:21:44;;;;;;;;;;;22.60;99.90;;;;;;5155404;27;19910;-75
2022/08/09 10:24:10;;;;;;;;;;;22.60;99.90;;;;;;5156002;27;19955;-75
2022/08/09 10:26:36;;;;;;;;;;;22.80;99.90;;;;;;5155320;27;20324;-75
2022/08/09 10:29:03;;;;;;;;;;;22.90;99.90;;;;;;5156076;27;19910;-75
2022/08/09 10:31:29;;;;;;;;;;;23.00;99.90;;;;;;5155243;27;19911;-75
2022/08/09 10:33:55;;;;;;;;;;;23.10;99.90;;;;;;5155915;27;19968;-74
2022/08/09 10:36:21;;;;;;;;;;;23.10;99.90;;;;;;5155958;27;19903;-74
2022/08/09 10:38:47;;;;;;;;;;;23.10;99.90;;;;;;5155248;27;19911;-75
2022/08/09 10:41:17;;;;;;;;;;;23.20;99.90;;;;;;5155317;27;20043;-75
2022/08/09 10:43:46;;;;;;;;;;;23.20;99.90;;;;;;5155098;27;20068;-74
2022/08/09 10:46:15;;;;;;;;;;;23.20;99.90;;;;;;5155317;27;19903;-75
2022/08/09 10:48:50;;;;;;;;;;;23.40;99.90;;;;;;5154987;27;20020;-75
2022/08/09 10:51:41;;;;;;;;;;;23.40;99.90;;;;;;5155311;27;19911;-75
2022/08/09 10:54:09;;;;;;;;;;;23.50;99.90;;;;;;5155483;27;19998;-75
2022/08/09 10:56:37;;;;;;;;;;;23.60;99.90;;;;;;5154924;27;19990;-75
2022/08/09 10:59:20;;;;;;;;;;;23.80;99.90;;;;;;5136781;27;19948;-75
2022/08/09 11:01:47;;;;;;;;;;;23.90;99.90;;;;;;5154268;27;19906;-75
2022/08/09 11:04:13;;;;;;;;;;;24.00;99.90;;;;;;5155313;27;20002;-74
2022/08/09 11:06:40;;;;;;;;;;;24.00;99.90;;;;;;5154758;27;19903;-74
2022/08/09 11:09:06;;;;;;;;;;;23.90;99.90;;;;;;5154675;27;20013;-74
2022/08/09 11:11:50;;;;;;;;;;;23.80;99.90;;;;;;5153863;27;20327;-75
2022/08/09 11:14:37;;;;;;;;;;;23.60;99.90;;;;;;5154326;27;20319;-75
2022/08/09 11:17:14;;;;;;;;;;;23.60;99.90;;;;;;5154057;27;20282;-75
2022/08/09 11:19:53;;;;;;;;;;;23.60;99.90;;;;;;5153919;27;19957;-75
2022/08/09 11:22:20;;;;;;;;;;;23.70;99.90;;;;;;5154357;27;19942;-75
2022/08/09 11:25:04;;;;;;;;;;;23.80;99.90;;;;;;5153738;27;19914;-75
2022/08/09 11:27:35;;;;;;;;;;;23.90;99.90;;;;;;5153321;27;19903;-75
2022/08/09 11:30:01;;;;;;;;;;;24.00;99.90;;;;;;5154467;27;20387;-75
2022/08/09 11:32:42;;;;;;;;;;;24.00;99.90;;;;;;5153233;27;20283;-75
2022/08/09 11:35:13;;;;;;;;;;;24.00;99.90;;;;;;5154166;27;19910;-75
2022/08/09 11:37:39;;;;;;;;;;;24.00;99.90;;;;;;5153561;27;19930;-75
2022/08/09 11:40:07;;;;;;;;;;;24.10;99.90;;;;;;5135611;27;20234;-74
2022/08/09 11:42:40;;;;;;;;;;;24.10;99.90;;;;;;5153495;27;19906;-75
2022/08/09 11:45:28;;;;;;;;;;;23.90;99.90;;;;;;5154028;27;19903;-75
2022/08/09 11:48:13;;;;;;;;;;;23.80;99.90;;;;;;5154438;27;19941;-75
2022/08/09 11:50:57;;;;;;;;;;;23.70;99.90;;;;;;5153194;27;19911;-75
2022/08/09 11:53:23;;;;;;;;;;;23.80;99.90;;;;;;5153896;27;19906;-75
2022/08/09 11:55:49;;;;;;;;;;;23.90;99.90;;;;;;5153668;27;19910;-76
2022/08/09 11:58:15;;;;;;;;;;;23.90;99.90;;;;;;5159397;27;19995;-75
2022/08/09 12:00:53;;;;;;;;;;;23.90;99.90;;;;;;5160184;27;20001;-75
2022/08/09 12:03:21;;;;;;;;;;;23.90;99.90;;;;;;5161150;27;19903;-75
2022/08/09 12:05:47;;;;;;;;;;;24.00;99.90;;;;;;5141407;27;19908;-75
2022/08/09 12:08:13;;;;;;;;;;;24.00;99.90;;;;;;5160148;27;19909;-75
2022/08/09 12:10:43;;;;;;;;;;;24.10;99.90;;;;;;5160376;27;19964;-75
2022/08/09 12:13:08;;;;;;;;;;;24.10;99.90;;;;;;5160347;27;19914;-75
2022/08/09 12:15:34;;;;;;;;;;;24.30;99.90;;;;;;5159803;27;19907;-76
2022/08/09 12:18:00;;;;;;;;;;;24.30;99.90;;;;;;5160905;27;19907;-74
2022/08/09 12:20:26;;;;;;;;;;;24.40;99.90;;;;;;5160401;27;19907;-74
2022/08/09 12:22:54;;;;;;;;;;;24.30;99.90;;;;;;5160427;27;20016;-75
2022/08/09 12:25:20;;;;;;;;;;;24.10;99.90;;;;;;5160345;27;20357;-74
2022/08/09 12:27:45;;;;;;;;;;;24.00;99.90;;;;;;5159885;27;19907;-75
2022/08/09 12:30:12;;;;;;;;;;;24.00;99.90;;;;;;5160066;27;19907;-75
2022/08/09 12:32:38;;;;;;;;;;;24.10;99.90;;;;;;5141444;27;20352;-75
2022/08/09 12:35:05;;;;;;;;;;;24.30;99.90;;;;;;5160295;27;19910;-75
2022/08/09 12:37:35;;;;;;;;;;;24.20;99.90;;;;;;5159993;27;19904;-75
2022/08/09 12:40:06;;;;;;;;;;;24.20;99.90;;;;;;5160472;27;19990;-75
2022/08/09 12:42:32;;;;;;;;;;;24.20;99.90;;;;;;5159563;27;20271;-75
2022/08/09 12:44:57;;;;;;;;;;;24.30;99.90;;;;;;5160337;27;19903;-75
2022/08/09 12:47:23;;;;;;;;;;;24.10;99.90;;;;;;5160606;27;19903;-75
2022/08/09 12:52:42;;;;;;;;;;;23.90;99.90;;;;;;5159745;27;19963;-75
2022/08/09 12:55:11;;;;;;;;;;;24.00;99.90;;;;;;5160075;27;19987;-75
2022/08/09 12:57:43;;;;;;;;;;;24.00;99.90;;;;;;5159921;27;20372;-75
2022/08/09 13:00:21;;;;;;;;;;;24.00;99.90;;;;;;5160049;27;19914;-75
2022/08/09 13:02:54;;;;;;;;;;;24.10;99.90;;;;;;5159776;27;19907;-75
2022/08/09 13:05:20;;;;;;;;;;;24.10;99.90;;;;;;5160393;27;19955;-75
2022/08/09 13:08:04;;;;;;;;;;;24.30;99.90;;;;;;5159682;27;19913;-76
2022/08/09 13:10:30;;;;;;;;;;;24.30;99.90;;;;;;5136858;27;20359;-76
2022/08/09 13:12:59;;;;;;;;;;;24.20;99.90;;;;;;5157078;27;19911;-75
2022/08/09 13:15:24;;;;;;;;;;;24.30;99.90;;;;;;5157027;27;20452;-74
2022/08/09 13:17:50;;;;;;;;;;;24.30;99.90;;;;;;5156495;27;19907;-74
2022/08/09 13:20:16;;;;;;;;;;;24.30;99.90;;;;;;5156870;27;20295;-75
2022/08/09 13:22:49;;;;;;;;;;;24.30;99.90;;;;;;5137994;27;19903;-75
2022/08/09 13:25:14;;;;;;;;;;;24.30;99.90;;;;;;5156745;27;19956;-74
2022/08/09 13:27:40;;;;;;;;;;;24.30;99.90;;;;;;5156187;27;19911;-75
2022/08/09 13:30:07;;;;;;;;;;;24.30;99.90;;;;;;5156573;27;19903;-74
2022/08/09 13:32:49;;;;;;;;;;;24.30;99.90;;;;;;5137385;27;20320;-74
2022/08/09 13:35:17;;;;;;;;;;;24.30;99.90;;;;;;5156735;27;19958;-76
2022/08/09 13:37:43;;;;;;;;;;;24.30;99.90;;;;;;5137567;27;19910;-76
2022/08/09 13:40:10;;;;;;;;;;;24.20;99.90;;;;;;5156937;27;19903;-75
2022/08/09 13:42:36;;;;;;;;;;;24.10;99.90;;;;;;5156094;27;19907;-75
2022/08/09 13:45:03;;;;;;;;;;;24.00;99.90;;;;;;5156979;27;20396;-75
2022/08/09 13:47:29;;;;;;;;;;;23.90;99.90;;;;;;5156227;27;19903;-75
2022/08/09 13:49:55;;;;;;;;;;;23.80;99.90;;;;;;5150177;27;19960;-74
2022/08/09 13:52:20;;;;;;;;;;;23.80;99.90;;;;;;5156657;27;20293;-74
2022/08/09 13:54:46;;;;;;;;;;;23.80;99.90;;;;;;5155944;27;19963;-74
2022/08/09 13:57:12;;;;;;;;;;;23.80;99.90;;;;;;5156817;27;19907;-74
2022/08/09 13:59:37;;;;;;;;;;;23.80;99.90;;;;;;5156129;27;20397;-75
2022/08/09 14:02:03;;;;;;;;;;;23.80;99.90;;;;;;5156971;27;19907;-75
2022/08/09 14:04:29;;;;;;;;;;;23.90;99.90;;;;;;5156524;27;19903;-75
2022/08/09 14:06:55;;;;;;;;;;;23.90;99.90;;;;;;5156258;27;19907;-74
2022/08/09 14:09:21;;;;;;;;;;;23.80;99.90;;;;;;5156431;27;19994;-74
2022/08/09 14:11:46;;;;;;;;;;;24.00;99.90;;;;;;5155477;27;20006;-75
2022/08/09 14:14:12;;;;;;;;;;;24.00;99.90;;;;;;5156409;27;19911;-75
2022/08/09 14:16:37;;;;;;;;;;;24.00;99.90;;;;;;5155775;27;20303;-75
2022/08/09 14:19:03;;;;;;;;;;;24.00;99.90;;;;;;5137786;27;19910;-75
2022/08/09 14:21:29;;;;;;;;;;;24.00;99.90;;;;;;5155412;27;19994;-76